Walnut Hill, Florida
Current Conditions -  °F | °C
As of 9:56 PM on Tuesday 21 Oct 2014 (Local Time) from KNSE Reporting Station
Clear Clear  
Wind Chill: 59°   Ceiling: Unl
Heat Index: 59°   Visibility: 10mi
Dew Point: 54°   Wind: 5mph
Humidity: 83%   Direction: 350°N
Pressure: 30.02"   Gusts: NA
Location:  30.8697°N, 87.4663°W
Report Text: KNSE 220256Z 35004KT 10SM CLR 15/12 A3002 RMK AO2 SLP154 T01500122 51017 $
Loading
Personal Weather Stations






























Interactive Weather Map
Tropical Storm Tracking
New forecast layout! Learn more

10-Day Weather Forecast

Advertisements
Track Severe Weather on mobile